Terminal Aerodrome Forecast
Issued by NWS

Home | Current Version | Previous Version | Text Only | Print | Product List | Glossary On
Versions: 1 2 3 4 5 6 7 8 9 10 11 12 13 14 15 16 17 18 19 20 21 22 23 24 25 26 27 28 29 30 31 32 33 34 35 36 37 38 39 40 41 42 43 44 45 46 47 48
000
FTUS45 KBOU 070108 AAA
TAFBJC
TAF AMD
KBJC 070108Z 0701/0724 08006KT P6SM VCSH SCT009 OVC030
      TEMPO 0701/0703 2SM BR BKN009
     FM070300 10006KT P6SM SCT015 BKN025
     FM070400 12006KT P6SM SCT025 BKN035
     FM070600 15008KT P6SM SCT035 BKN050
     FM071500 15012KT P6SM SCT050 SCT100
     FM071800 15012KT P6SM VCSH SCT050 BKN120
     FM072100 15012KT P6SM VCTS SCT050CB BKN080
      TEMPO 0722/0724 5SM -TSRA BKN050CB=

USA.gov is the U.S. government's official web portal to all federal, state and local government web resources and services.